Time;durP1;ratioP1;P1;durP2;ratioP2;P2;SDS_P1;SDS_P2;PMS_P1;PMS_P2;Temp;Humidity;BMP_temperature;BMP_pressure;BME280_temperature;BME280_humidity;BME280_pressure;Samples;Min_cycle;Max_cycle;Signal;HPM_P1;HPM_P2
2021/12/24 00:00:28;;;;;;;;;102.00;99.00;;;;;;;;5050570;28;8796;-81
2021/12/24 00:02:54;;;;;;;;;106.80;104.00;;;;;;;;5036808;27;8860;-80
2021/12/24 00:05:20;;;;;;;;;101.60;98.40;;;;;;;;5054708;27;8835;-80
2021/12/24 00:07:45;;;;;;;;;96.20;93.40;;;;;;;;5048829;27;8820;-80
2021/12/24 00:10:10;;;;;;;;;95.25;90.75;;;;;;;;5050158;28;8839;-81
2021/12/24 00:12:40;;;;;;;;;101.20;96.60;;;;;;;;5050307;28;8849;-80
2021/12/24 00:15:21;;;;;;;;;88.00;78.25;;;;;;;;5050201;27;8827;-80
2021/12/24 00:17:46;;;;;;;;;103.20;98.80;;;;;;;;5049880;28;8894;-80
2021/12/24 00:36:27;;;;;;;;;95.60;88.40;;;;;;;;5049725;28;10169;-81
2021/12/24 00:38:52;;;;;;;;;103.00;100.20;;;;;;;;5049502;28;9015;-81
2021/12/24 00:41:17;;;;;;;;;111.50;108.75;;;;;;;;5048112;28;8804;-80
2021/12/24 00:43:42;;;;;;;;;104.00;98.75;;;;;;;;5050110;27;11059;-81
2021/12/24 00:46:08;;;;;;;;;107.40;105.20;;;;;;;;5049843;28;8788;-80
2021/12/24 00:48:33;;;;;;;;;95.33;92.33;;;;;;;;5049730;27;8812;-81
2021/12/24 00:55:59;;;;;;;;;94.25;90.75;;;;;;;;5049034;27;9201;-81
2021/12/24 00:58:24;;;;;;;;;91.80;85.00;;;;;;;;5049472;27;8812;-80
2021/12/24 01:00:49;;;;;;;;;96.25;92.25;;;;;;;;5049220;27;8855;-81
2021/12/24 01:03:15;;;;;;;;;109.50;105.25;;;;;;;;5035977;28;8884;-80
2021/12/24 01:05:40;;;;;;;;;95.00;91.80;;;;;;;;5053694;27;8812;-81
2021/12/24 01:08:07;;;;;;;;;104.20;101.00;;;;;;;;5049201;28;8840;-81
2021/12/24 01:10:35;;;;;;;;;118.17;116.50;;;;;;;;5049039;28;9665;-81
2021/12/24 01:13:01;;;;;;;;;108.20;106.00;;;;;;;;5034786;28;8846;-81
2021/12/24 01:15:28;;;;;;;;;109.75;103.50;;;;;;;;5047694;27;8852;-81
2021/12/24 01:25:42;;;;;;;;;110.40;109.40;;;;;;;;5053913;27;8906;-81
2021/12/24 01:44:13;;;;;;;;;104.20;102.20;;;;;;;;5109020;27;8778;-81
2021/12/24 01:46:39;;;;;;;;;98.40;94.80;;;;;;;;5060779;27;8829;-81
2021/12/24 01:49:04;;;;;;;;;127.00;119.50;;;;;;;;5050290;28;8904;-81
2021/12/24 01:51:29;;;;;;;;;109.00;107.00;;;;;;;;5066846;27;8808;-81
2021/12/24 01:53:55;;;;;;;;;119.40;116.20;;;;;;;;5051688;27;8834;-81
2021/12/24 01:56:20;;;;;;;;;105.40;104.00;;;;;;;;5051502;28;8777;-81
2021/12/24 01:58:45;;;;;;;;;105.80;103.80;;;;;;;;5051440;27;8871;-81
2021/12/24 02:01:11;;;;;;;;;97.33;92.00;;;;;;;;5048057;27;8824;-81
2021/12/24 02:03:36;;;;;;;;;107.80;105.80;;;;;;;;5039113;28;9945;-81
2021/12/24 02:06:02;;;;;;;;;109.20;106.40;;;;;;;;5055525;27;8835;-81
2021/12/24 02:08:27;;;;;;;;;101.50;98.75;;;;;;;;5051966;28;8776;-81
2021/12/24 02:10:53;;;;;;;;;108.00;104.50;;;;;;;;5050961;27;9055;-81
2021/12/24 02:13:18;;;;;;;;;96.75;93.50;;;;;;;;5060459;28;8904;-81
2021/12/24 02:16:02;;;;;;;;;100.60;96.80;;;;;;;;5055919;28;11342;-81
2021/12/24 02:29:30;;;;;;;;;100.60;98.60;;;;;;;;5040736;28;10162;-81
2021/12/24 02:31:55;;;;;;;;;111.00;106.00;;;;;;;;5050081;27;8807;-81
2021/12/24 02:34:20;;;;;;;;;100.40;99.20;;;;;;;;5051341;28;10000;-81
2021/12/24 02:36:46;;;;;;;;;116.80;113.60;;;;;;;;5049294;27;8812;-81
2021/12/24 02:39:11;;;;;;;;;96.75;90.75;;;;;;;;5051432;28;9492;-81
2021/12/24 02:41:36;;;;;;;;;111.75;109.50;;;;;;;;5049697;27;11582;-81
2021/12/24 02:44:02;;;;;;;;;98.00;94.80;;;;;;;;5052981;27;8807;-81
2021/12/24 02:46:41;;;;;;;;;96.40;92.20;;;;;;;;5051192;28;8803;-81
2021/12/24 02:54:18;;;;;;;;;95.50;90.00;;;;;;;;5051162;28;8748;-81
2021/12/24 02:56:49;;;;;;;;;89.50;75.75;;;;;;;;5048992;27;10542;-81
2021/12/24 02:59:15;;;;;;;;;92.20;85.60;;;;;;;;5051213;28;8777;-81
2021/12/24 03:01:42;;;;;;;;;93.50;88.75;;;;;;;;5044443;27;8794;-81
2021/12/24 03:04:07;;;;;;;;;92.20;83.40;;;;;;;;5048374;27;8776;-81
2021/12/24 03:06:36;;;;;;;;;97.00;94.00;;;;;;;;5049376;27;9272;-81
2021/12/24 03:09:05;;;;;;;;;95.83;89.67;;;;;;;;5050369;27;8792;-81
2021/12/24 03:11:30;;;;;;;;;93.80;88.80;;;;;;;;5051052;28;8776;-81
2021/12/24 03:13:56;;;;;;;;;95.50;91.75;;;;;;;;5050675;27;8819;-81
2021/12/24 03:16:22;;;;;;;;;97.25;94.50;;;;;;;;5050782;28;8850;-81
2021/12/24 03:18:48;;;;;;;;;97.75;94.75;;;;;;;;5050604;28;8808;-81
2021/12/24 03:21:21;;;;;;;;;99.20;95.00;;;;;;;;5049233;28;8804;-81
2021/12/24 03:26:28;;;;;;;;;90.83;82.17;;;;;;;;5050849;28;8796;-81
2021/12/24 03:28:53;;;;;;;;;88.50;80.25;;;;;;;;5050338;27;8788;-81
2021/12/24 03:31:19;;;;;;;;;103.40;101.00;;;;;;;;5050800;28;8808;-81
2021/12/24 03:33:44;;;;;;;;;101.80;100.40;;;;;;;;5050506;27;8836;-81
2021/12/24 03:36:09;;;;;;;;;102.75;100.00;;;;;;;;5048984;28;8847;-81
2021/12/24 03:38:35;;;;;;;;;98.00;93.25;;;;;;;;5050421;28;8827;-81
2021/12/24 03:41:00;;;;;;;;;89.67;82.00;;;;;;;;5050059;28;8838;-80
2021/12/24 03:43:26;;;;;;;;;97.20;92.60;;;;;;;;5050562;27;8831;-81
2021/12/24 03:48:26;;;;;;;;;105.20;104.20;;;;;;;;5050515;27;8819;-81
2021/12/24 03:56:20;;;;;;;;;99.25;95.50;;;;;;;;5111324;28;8810;-81
2021/12/24 03:58:45;;;;;;;;;98.75;96.00;;;;;;;;5063195;27;8816;-81
2021/12/24 04:01:11;;;;;;;;;100.40;98.80;;;;;;;;5048045;27;8811;-81
2021/12/24 04:03:36;;;;;;;;;101.25;100.50;;;;;;;;5039655;28;8939;-81
2021/12/24 04:06:02;;;;;;;;;102.75;98.50;;;;;;;;5054053;27;8828;-81
2021/12/24 04:08:27;;;;;;;;;87.40;75.60;;;;;;;;5050670;28;9583;-81
2021/12/24 04:10:52;;;;;;;;;93.25;88.00;;;;;;;;5049900;27;8811;-81
2021/12/24 04:13:18;;;;;;;;;68.00;55.20;;;;;;;;5050398;28;8827;-81
2021/12/24 04:15:45;;;;;;;;;91.75;82.50;;;;;;;;5049839;27;8800;-81
2021/12/24 04:18:24;;;;;;;;;83.83;69.83;;;;;;;;5050035;28;8823;-81
2021/12/24 04:26:17;;;;;;;;;85.83;73.83;;;;;;;;5049571;28;8737;-81
2021/12/24 04:28:42;;;;;;;;;87.80;74.80;;;;;;;;5049707;28;8835;-81
2021/12/24 04:31:08;;;;;;;;;95.00;87.00;;;;;;;;5048573;27;8819;-81
2021/12/24 04:33:39;;;;;;;;;95.00;88.75;;;;;;;;5049981;27;8916;-81
2021/12/24 05:03:33;;;;;;;;;81.25;68.00;;;;;;;;5040274;28;8768;-81
2021/12/24 05:06:14;;;;;;;;;45.60;40.60;;;;;;;;5056632;27;8842;-81
2021/12/24 05:08:52;;;;;;;;;85.80;72.00;;;;;;;;5052481;28;9695;-81
2021/12/24 05:11:18;;;;;;;;;78.50;63.25;;;;;;;;5052100;28;11590;-81
2021/12/24 05:13:43;;;;;;;;;79.50;64.83;;;;;;;;5052473;28;8792;-81
2021/12/24 05:16:19;;;;;;;;;71.80;59.20;;;;;;;;5052362;27;8883;-81
2021/12/24 05:19:03;;;;;;;;;85.00;72.00;;;;;;;;5052464;28;8800;-81
2021/12/24 05:21:36;;;;;;;;;66.17;55.17;;;;;;;;5052406;28;8836;-82
2021/12/24 05:24:09;;;;;;;;;79.80;65.80;;;;;;;;5055900;27;8784;-81
2021/12/24 05:26:35;;;;;;;;;86.40;74.80;;;;;;;;5051837;27;11565;-81
2021/12/24 05:29:01;;;;;;;;;81.60;63.60;;;;;;;;5052109;28;8796;-81
2021/12/24 05:31:27;;;;;;;;;74.60;60.80;;;;;;;;5052222;28;8800;-82
2021/12/24 05:33:52;;;;;;;;;71.80;59.40;;;;;;;;5050572;27;8804;-82
2021/12/24 05:36:18;;;;;;;;;74.75;61.00;;;;;;;;5052250;28;8804;-81
2021/12/24 05:38:43;;;;;;;;;71.80;58.00;;;;;;;;5051860;27;9615;-82
2021/12/24 05:41:09;;;;;;;;;89.00;81.50;;;;;;;;5052272;28;8826;-82
2021/12/24 05:43:34;;;;;;;;;133.60;132.80;;;;;;;;5080573;27;8789;-81
2021/12/24 05:45:59;;;;;;;;;86.33;77.00;;;;;;;;5091335;27;8907;-81
2021/12/24 05:48:25;;;;;;;;;81.33;67.67;;;;;;;;5052326;28;8820;-81
2021/12/24 05:50:50;;;;;;;;;131.00;129.00;;;;;;;;5064119;27;8796;-81
2021/12/24 05:53:16;;;;;;;;;124.50;122.50;;;;;;;;5054337;27;12271;-81
2021/12/24 05:55:41;;;;;;;;;113.20;112.60;;;;;;;;5051466;28;11595;-81
2021/12/24 05:58:08;;;;;;;;;207.40;203.60;;;;;;;;5052012;27;8828;-81
2021/12/24 06:00:38;;;;;;;;;218.17;215.50;;;;;;;;5050625;28;8808;-81
2021/12/24 06:03:04;;;;;;;;;186.17;185.83;;;;;;;;5036058;28;9779;-81
2021/12/24 06:05:29;;;;;;;;;200.00;199.00;;;;;;;;5055126;27;8800;-81
2021/12/24 06:07:55;;;;;;;;;153.33;152.50;;;;;;;;5051198;27;8919;-81
2021/12/24 06:10:20;;;;;;;;;169.80;169.80;;;;;;;;5051684;28;9669;-81
2021/12/24 06:12:45;;;;;;;;;168.50;166.50;;;;;;;;5051401;27;8804;-81
2021/12/24 06:15:11;;;;;;;;;134.80;134.20;;;;;;;;5051865;28;8831;-81
2021/12/24 06:17:38;;;;;;;;;143.20;141.40;;;;;;;;5051592;27;8804;-81
2021/12/24 06:20:05;;;;;;;;;238.83;238.50;;;;;;;;5051416;28;9706;-81
2021/12/24 06:22:30;;;;;;;;;238.67;237.00;;;;;;;;5051535;27;8784;-81
2021/12/24 06:24:55;;;;;;;;;153.20;153.20;;;;;;;;5055124;27;9007;-82
2021/12/24 06:27:21;;;;;;;;;148.80;148.20;;;;;;;;5051594;27;8863;-82
2021/12/24 06:29:46;;;;;;;;;195.80;195.00;;;;;;;;5051465;28;8824;-82
2021/12/24 06:32:11;;;;;;;;;135.00;132.83;;;;;;;;5051660;27;8867;-82
2021/12/24 06:34:37;;;;;;;;;124.00;123.00;;;;;;;;5050464;28;8901;-82
2021/12/24 06:37:02;;;;;;;;;134.75;132.75;;;;;;;;5050900;27;8891;-82
2021/12/24 06:39:28;;;;;;;;;118.80;113.80;;;;;;;;5051603;28;8784;-82
2021/12/24 06:41:54;;;;;;;;;132.50;131.50;;;;;;;;5051418;27;8923;-82
2021/12/24 06:44:20;;;;;;;;;136.20;134.40;;;;;;;;5112680;27;8786;-82
2021/12/24 06:46:46;;;;;;;;;150.83;148.50;;;;;;;;5058892;27;8776;-82
2021/12/24 06:49:11;;;;;;;;;116.20;115.60;;;;;;;;5051605;27;8893;-82
2021/12/24 06:51:37;;;;;;;;;155.80;154.40;;;;;;;;5070537;27;8800;-82
2021/12/24 06:54:03;;;;;;;;;160.00;158.80;;;;;;;;5051163;28;8835;-82
2021/12/24 06:56:28;;;;;;;;;117.33;116.67;;;;;;;;5050843;27;11572;-83
2021/12/24 06:58:54;;;;;;;;;164.00;160.80;;;;;;;;5051334;28;8820;-83
2021/12/24 07:01:19;;;;;;;;;201.50;197.33;;;;;;;;5047802;27;8824;-84
2021/12/24 07:03:44;;;;;;;;;255.50;255.50;;;;;;;;5041349;28;8906;-83
2021/12/24 07:06:10;;;;;;;;;226.00;223.60;;;;;;;;5053847;27;8819;-83
2021/12/24 07:08:35;;;;;;;;;187.00;184.20;;;;;;;;5051506;28;8820;-83
2021/12/24 07:11:01;;;;;;;;;301.00;301.00;;;;;;;;5054020;27;8911;-83
2021/12/24 07:13:26;;;;;;;;;268.50;267.50;;;;;;;;5061423;28;8792;-83
2021/12/24 07:15:52;;;;;;;;;299.67;295.50;;;;;;;;5050683;27;8866;-83
2021/12/24 07:18:17;;;;;;;;;257.50;257.50;;;;;;;;5060713;28;8809;-83
2021/12/24 07:20:42;;;;;;;;;208.25;208.25;;;;;;;;5054531;27;9595;-83
2021/12/24 07:23:08;;;;;;;;;298.60;296.60;;;;;;;;5050932;27;8804;-83
2021/12/24 07:25:33;;;;;;;;;303.00;302.00;;;;;;;;5057028;27;8938;-83
2021/12/24 07:28:00;;;;;;;;;197.00;195.75;;;;;;;;5050961;27;8914;-83
2021/12/24 07:30:26;;;;;;;;;249.60;247.40;;;;;;;;5069827;27;8733;-83
2021/12/24 07:32:51;;;;;;;;;216.80;214.20;;;;;;;;5062975;28;8799;-83
2021/12/24 07:35:17;;;;;;;;;214.40;213.60;;;;;;;;5054957;27;8900;-83
2021/12/24 07:37:42;;;;;;;;;235.60;234.20;;;;;;;;5051902;28;8862;-83
2021/12/24 07:40:09;;;;;;;;;224.33;223.83;;;;;;;;5054500;27;8831;-83
2021/12/24 07:42:35;;;;;;;;;284.20;282.80;;;;;;;;5060535;28;8877;-83
2021/12/24 07:45:00;;;;;;;;;233.50;231.50;;;;;;;;5119537;27;9150;-83
2021/12/24 07:47:33;;;;;;;;;230.60;230.60;;;;;;;;5051128;28;9555;-83
2021/12/24 07:50:04;;;;;;;;;283.80;281.80;;;;;;;;5050222;28;8788;-83
2021/12/24 07:52:30;;;;;;;;;215.33;212.50;;;;;;;;5069969;27;9516;-83
2021/12/24 07:54:55;;;;;;;;;232.50;230.50;;;;;;;;5050373;28;8823;-83
2021/12/24 07:57:21;;;;;;;;;231.50;230.75;;;;;;;;5050431;27;8871;-83
2021/12/24 07:59:46;;;;;;;;;262.40;260.80;;;;;;;;5050475;28;8910;-83
2021/12/24 08:02:16;;;;;;;;;227.80;225.40;;;;;;;;5039879;27;8883;-83
2021/12/24 08:04:45;;;;;;;;;241.67;240.50;;;;;;;;5052616;27;8924;-82
2021/12/24 08:07:11;;;;;;;;;265.60;262.80;;;;;;;;5050344;27;8820;-83
2021/12/24 08:09:37;;;;;;;;;248.80;247.40;;;;;;;;5050290;27;11541;-83
2021/12/24 08:12:04;;;;;;;;;249.20;247.80;;;;;;;;5048780;28;8816;-83
2021/12/24 08:14:29;;;;;;;;;241.60;238.80;;;;;;;;5050475;27;8792;-82
2021/12/24 08:16:54;;;;;;;;;241.20;241.00;;;;;;;;5050060;28;8822;-82
2021/12/24 08:19:19;;;;;;;;;253.80;252.60;;;;;;;;5050199;27;11157;-82
2021/12/24 08:21:45;;;;;;;;;234.75;233.50;;;;;;;;5050250;28;8950;-82
2021/12/24 08:24:11;;;;;;;;;255.00;254.80;;;;;;;;5054222;27;9207;-82
2021/12/24 08:26:36;;;;;;;;;246.25;243.75;;;;;;;;5050058;27;8784;-82
2021/12/24 08:29:02;;;;;;;;;258.00;255.80;;;;;;;;5048817;27;8800;-82
2021/12/24 08:31:27;;;;;;;;;250.33;247.67;;;;;;;;5050161;27;8804;-82
2021/12/24 08:33:52;;;;;;;;;247.80;247.20;;;;;;;;5049973;28;8780;-82
2021/12/24 08:36:18;;;;;;;;;254.60;254.60;;;;;;;;5061787;27;8901;-83
2021/12/24 08:38:43;;;;;;;;;265.80;264.80;;;;;;;;5050918;28;8831;-83
2021/12/24 08:41:08;;;;;;;;;255.00;253.60;;;;;;;;5048361;27;8852;-83
2021/12/24 08:43:34;;;;;;;;;246.40;246.00;;;;;;;;5050648;27;9445;-83
2021/12/24 08:45:59;;;;;;;;;255.75;254.00;;;;;;;;5049652;27;8835;-83
2021/12/24 08:48:25;;;;;;;;;254.25;253.75;;;;;;;;5049595;28;8918;-83
2021/12/24 08:50:50;;;;;;;;;258.40;256.20;;;;;;;;5060489;27;8888;-82
2021/12/24 08:53:15;;;;;;;;;250.25;250.25;;;;;;;;5056123;27;8807;-83
2021/12/24 08:55:41;;;;;;;;;230.75;228.00;;;;;;;;5049355;27;8828;-83
2021/12/24 08:58:07;;;;;;;;;235.80;235.40;;;;;;;;5049628;28;8820;-82
2021/12/24 09:00:33;;;;;;;;;245.17;244.17;;;;;;;;5049689;27;9548;-82
2021/12/24 09:02:58;;;;;;;;;265.00;263.83;;;;;;;;5036220;27;8744;-82
2021/12/24 09:05:24;;;;;;;;;272.00;269.60;;;;;;;;5053902;27;8850;-82
2021/12/24 09:07:50;;;;;;;;;257.60;257.00;;;;;;;;5049197;28;8808;-82
2021/12/24 09:10:16;;;;;;;;;276.20;275.20;;;;;;;;5048099;28;8845;-82
2021/12/24 09:12:43;;;;;;;;;252.00;252.00;;;;;;;;5049417;28;8822;-82
2021/12/24 09:15:09;;;;;;;;;264.83;264.17;;;;;;;;5049976;28;8792;-82
2021/12/24 09:17:34;;;;;;;;;250.50;250.50;;;;;;;;5049419;27;8824;-82
2021/12/24 09:19:59;;;;;;;;;257.80;257.80;;;;;;;;5049470;28;9466;-82
2021/12/24 09:22:31;;;;;;;;;281.80;281.80;;;;;;;;5054159;27;8918;-83
2021/12/24 09:24:57;;;;;;;;;283.60;283.60;;;;;;;;5073017;27;8786;-82
2021/12/24 09:27:22;;;;;;;;;274.20;274.00;;;;;;;;5051529;27;8812;-82
2021/12/24 09:29:48;;;;;;;;;243.50;243.50;;;;;;;;5050058;28;8812;-83
2021/12/24 09:32:14;;;;;;;;;250.83;250.83;;;;;;;;5049644;27;8839;-83
2021/12/24 09:34:39;;;;;;;;;248.40;248.40;;;;;;;;5049661;28;8968;-83
2021/12/24 09:37:04;;;;;;;;;193.80;193.80;;;;;;;;5049275;27;8856;-82
2021/12/24 09:39:30;;;;;;;;;151.40;151.40;;;;;;;;5049484;28;8828;-82
2021/12/24 09:41:57;;;;;;;;;185.60;185.60;;;;;;;;5052405;27;8888;-82
2021/12/24 09:44:22;;;;;;;;;99.20;94.40;;;;;;;;5116189;27;8770;-82
2021/12/24 09:46:47;;;;;;;;;147.40;147.40;;;;;;;;5058336;27;9686;-82
2021/12/24 09:49:13;;;;;;;;;135.80;135.80;;;;;;;;5051260;28;8826;-82
2021/12/24 09:51:41;;;;;;;;;177.00;177.00;;;;;;;;5070412;27;8898;-82
2021/12/24 09:54:13;;;;;;;;;98.40;93.80;;;;;;;;5052720;28;8869;-82
2021/12/24 09:56:39;;;;;;;;;85.20;79.60;;;;;;;;5041576;27;8796;-82
2021/12/24 09:59:05;;;;;;;;;186.80;186.80;;;;;;;;5050572;28;8896;-82
2021/12/24 10:01:43;;;;;;;;;67.00;58.25;;;;;;;;5047528;28;8831;-82
2021/12/24 10:04:13;;;;;;;;;55.60;48.60;;;;;;;;5050108;27;8831;-82
2021/12/24 10:06:40;;;;;;;;;94.40;89.20;;;;;;;;5039213;28;8788;-82
2021/12/24 10:09:08;;;;;;;;;50.20;44.20;;;;;;;;5052035;27;8792;-83
2021/12/24 10:11:53;;;;;;;;;66.60;61.00;;;;;;;;5052281;28;8792;-82
2021/12/24 10:14:20;;;;;;;;;7.25;7.25;;;;;;;;5075978;27;8820;-82
2021/12/24 10:16:47;;;;;;;;;34.80;30.60;;;;;;;;5051541;27;8807;-82
2021/12/24 10:19:14;;;;;;;;;193.40;193.40;;;;;;;;5051771;28;8804;-82
2021/12/24 10:21:40;;;;;;;;;2.75;2.75;;;;;;;;5051921;27;8796;-83
2021/12/24 10:24:09;;;;;;;;;2.25;2.25;;;;;;;;5055366;27;8804;-82
2021/12/24 10:26:38;;;;;;;;;133.17;131.67;;;;;;;;5051874;27;8804;-82
2021/12/24 10:29:05;;;;;;;;;26.00;23.00;;;;;;;;5050348;28;9754;-82
2021/12/24 10:31:33;;;;;;;;;26.20;24.40;;;;;;;;5050901;27;8832;-82
2021/12/24 10:34:06;;;;;;;;;84.20;78.00;;;;;;;;5051859;28;9733;-82
2021/12/24 10:36:31;;;;;;;;;180.40;180.40;;;;;;;;5050647;27;8799;-82
2021/12/24 10:38:56;;;;;;;;;190.40;190.40;;;;;;;;5051761;27;11737;-82
2021/12/24 10:41:24;;;;;;;;;82.50;75.00;;;;;;;;5052032;27;8828;-82
2021/12/24 10:43:51;;;;;;;;;182.67;182.67;;;;;;;;5051978;27;8807;-82
2021/12/24 10:46:18;;;;;;;;;187.83;187.83;;;;;;;;5051995;28;8792;-82
2021/12/24 10:49:08;;;;;;;;;173.00;173.00;;;;;;;;5051855;27;8792;-82
2021/12/24 10:51:54;;;;;;;;;185.00;185.00;;;;;;;;5069553;27;10966;-82
2021/12/24 10:54:20;;;;;;;;;1.75;1.75;;;;;;;;5051914;27;8827;-82
2021/12/24 10:56:45;;;;;;;;;3.75;3.75;;;;;;;;5051847;27;8824;-82
2021/12/24 10:59:12;;;;;;;;;29.50;29.00;;;;;;;;5051993;28;8859;-82
2021/12/24 11:01:37;;;;;;;;;153.67;153.67;;;;;;;;5046264;27;8791;-82
2021/12/24 11:04:03;;;;;;;;;190.80;190.80;;;;;;;;5057585;27;8926;-82
2021/12/24 11:06:31;;;;;;;;;31.25;30.00;;;;;;;;5059029;27;8924;-82
2021/12/24 11:08:58;;;;;;;;;111.80;110.60;;;;;;;;5058714;27;8880;-82
2021/12/24 11:11:23;;;;;;;;;185.50;185.50;;;;;;;;5050063;28;8816;-82
2021/12/24 11:13:49;;;;;;;;;58.75;51.00;;;;;;;;5051889;27;8812;-82
2021/12/24 11:16:15;;;;;;;;;181.00;181.00;;;;;;;;5069525;28;9544;-81
2021/12/24 11:18:45;;;;;;;;;115.83;112.83;;;;;;;;5065254;27;8804;-82
2021/12/24 11:21:12;;;;;;;;;71.40;64.00;;;;;;;;5041065;28;8800;-82
2021/12/24 11:23:38;;;;;;;;;3.50;3.50;;;;;;;;5059509;27;8784;-82
2021/12/24 11:26:08;;;;;;;;;89.50;84.67;;;;;;;;5051977;27;9784;-82
2021/12/24 11:28:35;;;;;;;;;169.40;169.40;;;;;;;;5050498;28;8960;-82
2021/12/24 11:31:04;;;;;;;;;183.00;183.00;;;;;;;;5051248;27;10599;-82
2021/12/24 11:33:32;;;;;;;;;175.67;175.67;;;;;;;;5051490;27;8804;-82
2021/12/24 11:36:00;;;;;;;;;160.80;160.80;;;;;;;;5051211;27;8740;-82
2021/12/24 11:38:26;;;;;;;;;182.50;182.50;;;;;;;;5050998;28;12570;-82
2021/12/24 11:40:53;;;;;;;;;151.00;151.00;;;;;;;;5049303;27;8816;-82
2021/12/24 11:43:19;;;;;;;;;155.00;155.00;;;;;;;;5054844;27;8890;-82
2021/12/24 11:45:45;;;;;;;;;167.40;167.40;;;;;;;;5050884;27;8780;-82
2021/12/24 11:48:10;;;;;;;;;0.50;0.50;;;;;;;;5051310;28;8904;-82
2021/12/24 11:50:37;;;;;;;;;1.75;1.75;;;;;;;;5053502;27;8832;-82
2021/12/24 11:53:08;;;;;;;;;139.83;139.67;;;;;;;;5069419;27;9724;-82
2021/12/24 11:55:35;;;;;;;;;154.60;154.60;;;;;;;;5050987;27;9751;-82
2021/12/24 11:58:03;;;;;;;;;131.60;131.20;;;;;;;;5050518;28;8796;-82
2021/12/24 12:00:35;;;;;;;;;0.00;0.00;;;;;;;;5051342;27;8816;-82
2021/12/24 12:03:00;;;;;;;;;104.67;101.17;;;;;;;;5036138;28;9166;-82
2021/12/24 12:05:33;;;;;;;;;32.50;30.00;;;;;;;;5054931;27;8788;-82
2021/12/24 12:08:17;;;;;;;;;22.50;22.50;;;;;;;;5050598;27;8827;-82
2021/12/24 12:10:53;;;;;;;;;0.00;0.00;;;;;;;;5050543;27;8808;-82
2021/12/24 12:13:37;;;;;;;;;0.00;0.00;;;;;;;;5051243;28;8836;-82
2021/12/24 12:16:02;;;;;;;;;130.83;130.67;;;;;;;;5050282;27;8812;-81
2021/12/24 12:18:29;;;;;;;;;102.60;99.40;;;;;;;;5050705;28;8924;-81
2021/12/24 12:21:07;;;;;;;;;133.33;133.33;;;;;;;;5050320;27;8955;-81
2021/12/24 12:26:41;;;;;;;;;159.80;159.80;;;;;;;;5073922;27;8815;-81
2021/12/24 12:29:20;;;;;;;;;157.80;157.80;;;;;;;;5050642;27;8920;-81
2021/12/24 12:31:47;;;;;;;;;157.75;157.75;;;;;;;;5050330;28;8891;-81
2021/12/24 12:34:33;;;;;;;;;48.00;42.75;;;;;;;;5050773;28;8773;-81
2021/12/24 12:37:17;;;;;;;;;171.00;171.00;;;;;;;;5068983;27;8788;-81
2021/12/24 12:39:43;;;;;;;;;44.00;40.00;;;;;;;;5050442;28;8808;-81
2021/12/24 12:42:09;;;;;;;;;142.67;142.67;;;;;;;;5050490;28;8818;-81
2021/12/24 12:44:35;;;;;;;;;1.75;1.75;;;;;;;;5118880;27;8802;-81
2021/12/24 12:47:10;;;;;;;;;126.50;125.17;;;;;;;;5050432;27;8777;-81
2021/12/24 12:49:36;;;;;;;;;2.75;2.75;;;;;;;;5050817;28;8812;-81
2021/12/24 12:52:11;;;;;;;;;0.00;0.00;;;;;;;;5066506;27;8788;-81
2021/12/24 12:54:48;;;;;;;;;32.50;30.75;;;;;;;;5050076;28;8788;-81
2021/12/24 12:57:15;;;;;;;;;114.80;113.00;;;;;;;;5048834;27;8823;-81
2021/12/24 12:59:41;;;;;;;;;0.00;0.00;;;;;;;;5050506;28;8846;-81
2021/12/24 13:02:07;;;;;;;;;112.33;109.17;;;;;;;;5040392;27;8811;-81
2021/12/24 13:04:32;;;;;;;;;0.00;0.00;;;;;;;;5057527;27;8816;-80
2021/12/24 13:06:58;;;;;;;;;0.00;0.00;;;;;;;;5065219;27;8816;-79
2021/12/24 13:09:26;;;;;;;;;0.00;0.00;;;;;;;;5055262;27;8787;-81
2021/12/24 13:11:53;;;;;;;;;0.00;0.00;;;;;;;;5050429;28;8787;-81
2021/12/24 13:14:19;;;;;;;;;0.50;0.50;;;;;;;;5050099;27;8768;-81
2021/12/24 13:16:52;;;;;;;;;0.00;0.00;;;;;;;;5053014;28;8780;-81
2021/12/24 13:24:47;;;;;;;;;0.00;0.00;;;;;;;;5046775;27;8793;-81
2021/12/24 13:27:12;;;;;;;;;0.00;0.00;;;;;;;;5053095;27;8788;-81
2021/12/24 13:29:38;;;;;;;;;0.00;0.00;;;;;;;;5053183;28;8792;-81
2021/12/24 13:32:04;;;;;;;;;0.00;0.00;;;;;;;;5052658;27;8812;-80
2021/12/24 13:34:29;;;;;;;;;0.00;0.00;;;;;;;;5052490;28;8934;-81
2021/12/24 13:36:59;;;;;;;;;0.00;0.00;;;;;;;;5052920;27;8919;-80
2021/12/24 13:39:24;;;;;;;;;0.00;0.00;;;;;;;;5052757;28;8764;-81
2021/12/24 13:41:59;;;;;;;;;0.00;0.00;;;;;;;;5051631;27;8995;-81
2021/12/24 13:44:26;;;;;;;;;0.00;0.00;;;;;;;;5054125;27;8752;-81
2021/12/24 13:47:29;;;;;;;;;0.00;0.00;;;;;;;;5052981;27;8923;-81
2021/12/24 13:55:22;;;;;;;;;25.40;23.00;;;;;;;;5042200;28;9709;-81
2021/12/24 13:58:01;;;;;;;;;79.00;72.60;;;;;;;;5052338;27;8878;-81
2021/12/24 14:00:29;;;;;;;;;128.20;128.20;;;;;;;;5051037;27;8849;-80
2021/12/24 14:02:55;;;;;;;;;2.75;2.75;;;;;;;;5039265;28;8810;-80
2021/12/24 14:05:21;;;;;;;;;5.00;5.00;;;;;;;;5057043;27;8877;-80
2021/12/24 14:08:01;;;;;;;;;2.00;2.00;;;;;;;;5051937;28;8843;-80
2021/12/24 14:10:27;;;;;;;;;9.00;9.00;;;;;;;;5052217;28;8834;-80
2021/12/24 14:12:54;;;;;;;;;4.25;4.25;;;;;;;;5052332;27;8823;-80
2021/12/24 14:15:24;;;;;;;;;0.00;0.00;;;;;;;;5052536;28;8784;-80
2021/12/24 14:23:30;;;;;;;;;0.50;0.50;;;;;;;;5033423;27;8819;-81
2021/12/24 14:25:57;;;;;;;;;0.00;0.00;;;;;;;;5042049;27;8935;-80
2021/12/24 14:28:23;;;;;;;;;0.25;0.25;;;;;;;;5051825;27;8797;-80
2021/12/24 14:30:48;;;;;;;;;1.00;1.00;;;;;;;;5052253;28;8780;-80
2021/12/24 14:33:13;;;;;;;;;2.50;2.50;;;;;;;;5051041;27;8842;-80
2021/12/24 14:35:43;;;;;;;;;3.75;3.75;;;;;;;;5052404;28;8819;-80
2021/12/24 14:38:14;;;;;;;;;22.50;22.00;;;;;;;;5052215;27;8792;-80
2021/12/24 14:40:40;;;;;;;;;5.25;5.25;;;;;;;;5051936;28;11493;-80
2021/12/24 14:43:16;;;;;;;;;22.50;22.00;;;;;;;;5057292;27;8882;-80
2021/12/24 14:45:42;;;;;;;;;28.50;26.75;;;;;;;;5116688;27;8778;-80
2021/12/24 14:48:21;;;;;;;;;21.75;21.25;;;;;;;;5055973;28;9594;-80
2021/12/24 14:51:03;;;;;;;;;45.80;40.40;;;;;;;;5061623;27;8814;-80
2021/12/24 14:53:30;;;;;;;;;25.25;24.50;;;;;;;;5040307;28;8865;-80
2021/12/24 14:55:55;;;;;;;;;18.50;18.25;;;;;;;;5058160;27;8772;-81
2021/12/24 14:58:29;;;;;;;;;5.50;5.50;;;;;;;;5056271;27;8955;-81
2021/12/24 15:00:54;;;;;;;;;40.40;36.60;;;;;;;;5052487;28;8911;-81
2021/12/24 15:03:21;;;;;;;;;17.25;17.25;;;;;;;;5039219;28;8914;-80
2021/12/24 15:05:50;;;;;;;;;18.50;18.50;;;;;;;;5056386;27;8796;-81
2021/12/24 15:08:15;;;;;;;;;17.50;17.50;;;;;;;;5039561;28;8792;-80
2021/12/24 15:10:53;;;;;;;;;63.75;55.25;;;;;;;;5051319;27;8800;-80
2021/12/24 15:13:20;;;;;;;;;64.40;57.20;;;;;;;;5052158;27;8792;-80
2021/12/24 15:15:50;;;;;;;;;36.75;33.50;;;;;;;;5051657;28;8803;-80
2021/12/24 15:18:15;;;;;;;;;49.00;43.25;;;;;;;;5051939;27;11543;-80
2021/12/24 15:20:40;;;;;;;;;89.25;84.50;;;;;;;;5051419;28;8808;-81
2021/12/24 15:23:06;;;;;;;;;68.00;59.00;;;;;;;;5051474;27;11618;-81
2021/12/24 15:25:32;;;;;;;;;126.25;126.25;;;;;;;;5054922;27;8858;-81
2021/12/24 15:28:01;;;;;;;;;129.17;128.67;;;;;;;;5051087;27;8811;-81
2021/12/24 15:30:26;;;;;;;;;145.40;145.40;;;;;;;;5051482;28;8788;-81
2021/12/24 15:32:51;;;;;;;;;134.40;134.40;;;;;;;;5050027;27;8850;-81
2021/12/24 15:35:17;;;;;;;;;162.25;162.25;;;;;;;;5051152;28;8784;-81
2021/12/24 15:37:42;;;;;;;;;166.00;166.00;;;;;;;;5050750;27;8903;-81
2021/12/24 15:40:08;;;;;;;;;154.50;154.50;;;;;;;;5051000;28;8788;-80
2021/12/24 15:42:33;;;;;;;;;156.40;156.40;;;;;;;;5051275;27;11634;-81
2021/12/24 15:44:58;;;;;;;;;166.50;166.50;;;;;;;;5119901;27;8828;-80
2021/12/24 15:47:24;;;;;;;;;163.50;163.50;;;;;;;;5051472;27;8792;-80
2021/12/24 15:49:49;;;;;;;;;179.00;179.00;;;;;;;;5050756;27;9644;-81
2021/12/24 15:52:14;;;;;;;;;151.00;151.00;;;;;;;;5069024;27;8796;-80
2021/12/24 15:54:39;;;;;;;;;185.25;185.25;;;;;;;;5050543;27;9574;-81
2021/12/24 15:57:05;;;;;;;;;189.60;189.60;;;;;;;;5050716;27;8804;-81
2021/12/24 15:59:34;;;;;;;;;195.50;195.50;;;;;;;;5049526;27;8854;-81
2021/12/24 16:02:04;;;;;;;;;176.40;176.40;;;;;;;;5041894;27;8961;-81
2021/12/24 16:04:30;;;;;;;;;149.33;149.33;;;;;;;;5051421;27;11529;-81
2021/12/24 16:06:55;;;;;;;;;160.60;160.60;;;;;;;;5050610;27;9612;-81
2021/12/24 16:09:23;;;;;;;;;0.50;0.50;;;;;;;;5050619;27;8862;-81
2021/12/24 16:11:49;;;;;;;;;3.25;3.25;;;;;;;;5051008;28;8776;-81
2021/12/24 16:14:15;;;;;;;;;1.50;1.50;;;;;;;;5049399;27;8831;-81
2021/12/24 16:16:44;;;;;;;;;93.80;89.00;;;;;;;;5050580;28;8796;-81
2021/12/24 16:19:10;;;;;;;;;5.00;5.00;;;;;;;;5050567;27;8844;-81
2021/12/24 16:21:35;;;;;;;;;81.60;75.20;;;;;;;;5050937;28;8796;-81
2021/12/24 16:24:00;;;;;;;;;17.50;17.50;;;;;;;;5054170;27;8804;-81